createdAt,value
2022-09-23T00:01:19.212Z,89.26
2022-09-23T00:03:46.925Z,89.16
2022-09-23T00:06:22.115Z,88.98
2022-09-23T00:08:49.898Z,88.46
2022-09-23T00:11:19.534Z,88.12
2022-09-23T00:13:48.987Z,88.16
2022-09-23T00:16:19.981Z,88.21
2022-09-23T00:18:47.057Z,88.35
2022-09-23T00:21:14.580Z,88.52
2022-09-23T00:23:43.313Z,88.64
2022-09-23T00:26:12.925Z,88.80
2022-09-23T00:28:40.652Z,88.95
2022-09-23T00:31:12.741Z,88.96
2022-09-23T00:33:40.849Z,88.98
2022-09-23T00:36:11.205Z,89.24
2022-09-23T00:38:38.686Z,89.43
2022-09-23T00:41:17.834Z,89.31
2022-09-23T00:43:47.995Z,89.45
2022-09-23T00:46:24.193Z,89.34
2022-09-23T00:48:54.937Z,89.38
2022-09-23T00:51:26.112Z,89.26
2022-09-23T00:53:53.162Z,89.29
2022-09-23T00:56:21.681Z,89.21
2022-09-23T00:58:49.500Z,89.35
2022-09-23T01:01:16.519Z,89.33
2022-09-23T01:03:45.597Z,89.57
2022-09-23T01:06:13.682Z,89.63
2022-09-23T01:08:44.781Z,89.73
2022-09-23T01:11:29.949Z,89.72
2022-09-23T01:14:02.361Z,89.84
2022-09-23T01:16:47.851Z,89.82
2022-09-23T01:19:36.766Z,89.96
2022-09-23T01:22:08.646Z,89.88
2022-09-23T01:25:00.939Z,89.84
2022-09-23T01:27:32.441Z,89.75
2022-09-23T01:30:19.156Z,89.87
2022-09-23T01:33:01.308Z,89.82
2022-09-23T01:35:30.487Z,89.91
2022-09-23T01:38:25.533Z,89.87
2022-09-23T01:41:00.114Z,89.77
2022-09-23T01:43:48.757Z,89.89
2022-09-23T01:46:29.735Z,89.94
2022-09-23T01:49:03.277Z,89.91
2022-09-23T01:51:37.944Z,89.98
2022-09-23T01:54:11.007Z,90.07
2022-09-23T01:56:43.957Z,90.01
2022-09-23T01:59:26.527Z,90.47
2022-09-23T02:02:04.404Z,90.41
2022-09-23T02:04:38.919Z,90.16
2022-09-23T02:07:24.842Z,90.19
2022-09-23T02:10:02.427Z,89.88
2022-09-23T02:12:33.965Z,89.86
2022-09-23T02:15:14.472Z,89.91
2022-09-23T02:17:45.179Z,89.87
2022-09-23T02:20:14.995Z,89.81
2022-09-23T02:22:58.199Z,89.88
2022-09-23T02:25:34.060Z,89.85
2022-09-23T02:28:13.051Z,89.92
2022-09-23T02:30:53.899Z,90.32
2022-09-23T02:33:43.327Z,90.59
2022-09-23T02:36:15.959Z,90.83
2022-09-23T02:38:57.620Z,90.84
2022-09-23T02:41:41.056Z,90.88
2022-09-23T02:44:11.404Z,90.87
2022-09-23T02:46:38.597Z,90.79
2022-09-23T02:49:22.312Z,90.89
2022-09-23T02:51:49.848Z,90.77
2022-09-23T02:54:22.010Z,90.70
2022-09-23T02:56:52.666Z,90.74
2022-09-23T02:59:21.995Z,90.30
2022-09-23T03:02:07.163Z,90.44
2022-09-23T03:04:38.528Z,90.47
2022-09-23T03:07:18.639Z,90.39
2022-09-23T03:09:48.584Z,90.29
2022-09-23T03:12:36.321Z,90.12
2022-09-23T03:15:09.745Z,90.16
2022-09-23T03:18:04.960Z,90.24
2022-09-23T03:20:35.494Z,90.42
2022-09-23T03:23:07.117Z,90.42
2022-09-23T03:25:37.089Z,90.54
2022-09-23T03:28:04.992Z,90.55
2022-09-23T03:30:35.649Z,90.66
2022-09-23T03:33:05.052Z,90.88
2022-09-23T03:35:54.366Z,90.80
2022-09-23T03:38:24.586Z,91.08
2022-09-23T03:40:53.379Z,90.99
2022-09-23T03:43:20.618Z,90.93
2022-09-23T03:45:47.982Z,91.02
2022-09-23T03:48:15.804Z,90.79
2022-09-23T03:50:42.731Z,90.67
2022-09-23T03:53:09.573Z,90.59
2022-09-23T03:55:39.450Z,90.50
2022-09-23T03:58:08.164Z,90.65
2022-09-23T04:00:36.265Z,90.39
2022-09-23T04:03:06.137Z,90.41
2022-09-23T04:05:36.333Z,90.39
2022-09-23T04:08:03.279Z,90.48
2022-09-23T04:10:30.142Z,90.32
2022-09-23T04:12:57.083Z,90.23
2022-09-23T04:15:23.956Z,90.06
2022-09-23T04:17:50.957Z,90.02
2022-09-23T04:20:19.160Z,90.14
2022-09-23T04:22:49.536Z,90.32
2022-09-23T04:25:16.981Z,90.11
2022-09-23T04:27:43.964Z,90.16
2022-09-23T04:30:11.917Z,89.89
2022-09-23T04:32:38.835Z,89.91
2022-09-23T04:35:07.215Z,89.59
2022-09-23T04:37:37.260Z,89.22
2022-09-23T04:40:04.597Z,88.54
2022-09-23T04:42:31.816Z,88.13
2022-09-23T04:44:59.057Z,87.66
2022-09-23T04:47:26.295Z,87.17
2022-09-23T04:49:56.568Z,86.77
2022-09-23T04:52:26.027Z,86.62
2022-09-23T04:54:52.928Z,86.26
2022-09-23T04:57:19.925Z,85.72
2022-09-23T04:59:47.430Z,84.36
2022-09-23T05:02:15.391Z,83.75
2022-09-23T05:04:42.639Z,82.97
2022-09-23T05:07:10.678Z,81.57
2022-09-23T05:09:37.579Z,81.27
2022-09-23T05:12:04.960Z,81.08
2022-09-23T05:14:31.892Z,80.45
2022-09-23T05:16:58.774Z,80.26
2022-09-23T05:19:25.754Z,80.00
2022-09-23T05:21:52.717Z,79.90
2022-09-23T05:24:19.825Z,79.40
2022-09-23T05:26:47.082Z,79.04
2022-09-23T05:29:14.913Z,78.82
2022-09-23T05:31:41.826Z,78.64
2022-09-23T05:34:08.877Z,77.92
2022-09-23T05:36:38.758Z,78.18
2022-09-23T05:39:07.641Z,77.87
2022-09-23T05:41:34.991Z,77.35
2022-09-23T05:44:02.673Z,77.05
2022-09-23T05:46:31.022Z,76.35
2022-09-23T05:49:02.448Z,75.60
2022-09-23T05:51:31.612Z,75.56
2022-09-23T05:53:59.565Z,75.35
2022-09-23T05:56:47.384Z,75.04
2022-09-23T05:59:15.488Z,74.60
2022-09-23T06:01:44.875Z,73.84
2022-09-23T06:04:14.422Z,73.12
2022-09-23T06:06:42.699Z,73.07
2022-09-23T06:09:15.433Z,72.58
2022-09-23T06:11:42.798Z,72.38
2022-09-23T06:14:12.255Z,72.54
2022-09-23T06:16:39.139Z,72.12
2022-09-23T06:19:08.127Z,71.53
2022-09-23T06:21:37.704Z,70.86
2022-09-23T06:24:06.382Z,69.92
2022-09-23T06:26:36.331Z,69.22
2022-09-23T06:29:05.072Z,68.97
2022-09-23T06:31:33.136Z,68.11
2022-09-23T06:34:09.149Z,67.47
2022-09-23T06:36:43.870Z,66.11
2022-09-23T06:39:15.594Z,65.93
2022-09-23T06:41:44.502Z,65.26
2022-09-23T06:44:14.976Z,64.90
2022-09-23T06:46:42.260Z,65.08
2022-09-23T06:49:11.284Z,65.23
2022-09-23T06:51:38.303Z,65.38
2022-09-23T06:54:06.643Z,65.50
2022-09-23T06:56:38.705Z,64.73
2022-09-23T06:59:07.775Z,64.86
2022-09-23T07:01:35.450Z,64.38
2022-09-23T07:04:05.356Z,64.22
2022-09-23T07:06:32.470Z,64.12
2022-09-23T07:09:01.174Z,64.91
2022-09-23T07:11:28.263Z,65.02
2022-09-23T07:13:55.381Z,65.06
2022-09-23T07:16:22.459Z,64.65
2022-09-23T07:18:49.548Z,65.03
2022-09-23T07:21:18.425Z,64.96
2022-09-23T07:23:47.360Z,64.70
2022-09-23T07:26:15.649Z,64.72
2022-09-23T07:28:42.911Z,64.66
2022-09-23T07:31:20.236Z,64.71
2022-09-23T07:33:56.791Z,64.50
2022-09-23T07:36:24.308Z,64.62
2022-09-23T07:38:51.824Z,64.41
2022-09-23T07:41:19.807Z,63.72
2022-09-23T07:43:47.633Z,62.83
2022-09-23T07:46:17.570Z,63.34
2022-09-23T07:48:46.084Z,63.26
2022-09-23T07:51:18.164Z,62.08
2022-09-23T07:53:48.503Z,61.11
2022-09-23T07:56:15.974Z,60.21
2022-09-23T07:58:42.986Z,59.53
2022-09-23T08:01:10.921Z,59.04
2022-09-23T08:03:39.678Z,59.25
2022-09-23T08:06:12.112Z,59.18
2022-09-23T08:08:43.656Z,60.08
2022-09-23T08:11:13.413Z,60.33
2022-09-23T08:13:41.028Z,60.00
2022-09-23T08:16:08.183Z,59.73
2022-09-23T08:18:35.625Z,59.34
2022-09-23T08:21:03.141Z,58.98
2022-09-23T08:23:33.634Z,58.22
2022-09-23T08:26:02.858Z,58.27
2022-09-23T08:28:30.135Z,59.11
2022-09-23T08:30:58.293Z,59.70
2022-09-23T08:33:25.771Z,59.87
2022-09-23T08:35:53.277Z,60.63
2022-09-23T08:38:20.791Z,60.52
2022-09-23T08:40:50.039Z,61.37
2022-09-23T08:43:31.384Z,62.52
2022-09-23T08:46:01.629Z,63.48
2022-09-23T08:48:47.723Z,63.44
2022-09-23T08:51:17.530Z,62.88
2022-09-23T08:53:46.911Z,63.45
2022-09-23T08:56:16.699Z,63.95
2022-09-23T08:59:21.383Z,64.50
2022-09-23T09:02:06.015Z,64.92
2022-09-23T09:04:36.043Z,64.88
2022-09-23T09:07:35.110Z,64.90
2022-09-23T09:10:41.988Z,64.07
2022-09-23T09:13:33.123Z,63.36
2022-09-23T09:16:36.610Z,62.46
2022-09-23T09:19:20.803Z,62.30
2022-09-23T09:21:52.519Z,61.77
2022-09-23T09:24:45.718Z,61.82
2022-09-23T09:27:14.027Z,61.83
2022-09-23T09:29:43.704Z,60.88
2022-09-23T09:32:23.428Z,60.06
2022-09-23T09:34:54.824Z,59.76
2022-09-23T09:37:33.812Z,59.71
2022-09-23T09:40:00.981Z,58.40
2022-09-23T09:42:39.398Z,57.55
2022-09-23T09:45:37.996Z,57.85
2022-09-23T09:48:11.286Z,56.85
2022-09-23T09:50:49.356Z,57.04
2022-09-23T09:53:27.486Z,57.52
2022-09-23T09:56:04.656Z,57.71
2022-09-23T09:58:46.062Z,58.07
2022-09-23T10:01:36.730Z,58.82
2022-09-23T10:04:06.730Z,59.20
2022-09-23T10:06:35.886Z,58.71
2022-09-23T10:09:12.203Z,58.68
2022-09-23T10:11:39.950Z,58.82
2022-09-23T10:14:17.681Z,58.87
2022-09-23T10:16:46.729Z,58.01
2022-09-23T10:19:26.415Z,57.63
2022-09-23T10:21:57.028Z,56.95
2022-09-23T10:24:32.976Z,56.41
2022-09-23T10:27:04.432Z,55.58
2022-09-23T10:29:39.266Z,54.25
2022-09-23T10:32:19.107Z,54.64
2022-09-23T10:34:50.600Z,55.44
2022-09-23T10:37:48.486Z,55.99
2022-09-23T10:40:49.820Z,57.31
2022-09-23T10:43:46.775Z,58.03
2022-09-23T10:46:46.256Z,58.48
2022-09-23T10:49:38.866Z,58.41
2022-09-23T10:52:09.511Z,58.03
2022-09-23T10:54:51.573Z,57.31
2022-09-23T10:57:42.887Z,56.19
2022-09-23T11:00:16.659Z,55.04
2022-09-23T11:03:23.930Z,54.63
2022-09-23T11:06:03.065Z,52.70
2022-09-23T11:08:32.960Z,50.83
2022-09-23T11:11:11.565Z,48.97
2022-09-23T11:14:08.216Z,48.84
2022-09-23T11:17:14.896Z,49.52
2022-09-23T11:19:50.510Z,49.75
2022-09-23T11:22:36.283Z,46.91
2022-09-23T11:25:16.978Z,46.82
2022-09-23T11:28:08.058Z,47.66
2022-09-23T11:31:11.707Z,48.12
2022-09-23T11:33:47.663Z,48.61
2022-09-23T11:36:32.949Z,50.78
2022-09-23T11:39:01.871Z,51.88
2022-09-23T11:41:31.769Z,53.41
2022-09-23T11:44:20.104Z,54.32
2022-09-23T11:47:02.003Z,55.13
2022-09-23T11:49:37.368Z,56.68
2022-09-23T11:52:25.189Z,57.27
2022-09-23T11:54:57.789Z,57.29
2022-09-23T11:57:43.298Z,57.93
2022-09-23T12:00:35.945Z,58.02
2022-09-23T12:03:06.555Z,57.49
2022-09-23T12:05:44.490Z,56.95
2022-09-23T12:08:21.751Z,57.09
2022-09-23T12:11:07.076Z,57.17
2022-09-23T12:14:04.169Z,57.56
2022-09-23T12:16:59.747Z,58.14
2022-09-23T12:20:00.535Z,58.35
2022-09-23T12:23:09.595Z,58.23
2022-09-23T12:25:57.987Z,58.22
2022-09-23T12:28:39.667Z,57.82
2022-09-23T12:31:11.395Z,58.04
2022-09-23T12:33:38.796Z,57.86
2022-09-23T12:36:11.446Z,57.94
2022-09-23T12:39:00.689Z,58.64
2022-09-23T12:41:36.732Z,57.72
2022-09-23T12:44:15.654Z,57.71
2022-09-23T12:46:44.812Z,58.15
2022-09-23T12:49:37.839Z,58.25
2022-09-23T12:52:10.784Z,58.00
2022-09-23T12:54:39.016Z,57.80
2022-09-23T12:57:26.936Z,57.82
2022-09-23T13:00:12.974Z,57.29
2022-09-23T13:03:11.305Z,56.88
2022-09-23T13:06:10.994Z,56.74
2022-09-23T13:08:40.032Z,56.43
2022-09-23T13:11:34.562Z,55.91
2022-09-23T13:14:03.634Z,55.34
2022-09-23T13:16:42.898Z,55.70
2022-09-23T13:19:28.463Z,55.78
2022-09-23T13:22:03.831Z,56.02
2022-09-23T13:24:42.195Z,55.94
2022-09-23T13:27:26.656Z,55.65
2022-09-23T13:30:04.614Z,55.58
2022-09-23T13:32:35.153Z,54.91
2022-09-23T13:35:06.825Z,55.01
2022-09-23T13:37:46.315Z,55.18
2022-09-23T13:40:19.806Z,54.70
2022-09-23T13:43:09.895Z,54.64
2022-09-23T13:45:38.499Z,54.77
2022-09-23T13:48:15.458Z,54.70
2022-09-23T13:50:49.229Z,54.57
2022-09-23T13:53:34.673Z,54.34
2022-09-23T13:56:14.416Z,55.11
2022-09-23T13:58:41.780Z,55.79
2022-09-23T14:01:23.425Z,56.29
2022-09-23T14:03:51.536Z,56.63
2022-09-23T14:06:18.603Z,57.35
2022-09-23T14:08:47.514Z,57.41
2022-09-23T14:11:19.850Z,57.57
2022-09-23T14:13:55.214Z,58.46
2022-09-23T14:16:26.843Z,58.73
2022-09-23T14:18:59.844Z,59.31
2022-09-23T14:21:36.006Z,59.81
2022-09-23T14:24:32.581Z,60.50
2022-09-23T14:27:04.572Z,60.99
2022-09-23T14:29:40.635Z,61.37
2022-09-23T14:32:13.738Z,61.50
2022-09-23T14:34:52.231Z,61.96
2022-09-23T14:37:52.171Z,62.11
2022-09-23T14:40:20.969Z,62.65
2022-09-23T14:42:52.349Z,63.11
2022-09-23T14:45:22.460Z,63.37
2022-09-23T14:47:57.670Z,63.86
2022-09-23T14:50:37.245Z,64.04
2022-09-23T14:53:06.505Z,64.29
2022-09-23T14:55:33.897Z,64.76
2022-09-23T14:58:04.862Z,65.07
2022-09-23T15:00:31.953Z,65.60
2022-09-23T15:03:00.602Z,65.63
2022-09-23T15:05:40.180Z,66.17
2022-09-23T15:08:07.629Z,66.17
2022-09-23T15:10:37.752Z,66.63
2022-09-23T15:13:09.005Z,66.82
2022-09-23T15:15:36.351Z,66.91
2022-09-23T15:18:05.653Z,67.40
2022-09-23T15:20:33.959Z,67.56
2022-09-23T15:23:01.829Z,67.61
2022-09-23T15:25:35.976Z,67.96
2022-09-23T15:28:08.689Z,68.04
2022-09-23T15:30:36.256Z,68.17
2022-09-23T15:33:03.454Z,68.11
2022-09-23T15:35:32.073Z,68.46
2022-09-23T15:38:03.790Z,68.75
2022-09-23T15:40:34.980Z,69.14
2022-09-23T15:43:21.079Z,69.44
2022-09-23T15:45:53.560Z,69.44
2022-09-23T15:48:38.273Z,69.59
2022-09-23T15:51:09.992Z,69.96
2022-09-23T15:53:38.354Z,70.06
2022-09-23T15:56:06.417Z,70.39
2022-09-23T15:58:33.385Z,70.60
2022-09-23T16:01:01.115Z,70.75
2022-09-23T16:03:35.759Z,70.75
2022-09-23T16:06:04.268Z,70.67
2022-09-23T16:08:33.271Z,71.01
2022-09-23T16:11:01.029Z,70.79
2022-09-23T16:13:28.849Z,70.89
2022-09-23T16:15:56.696Z,71.08
2022-09-23T16:18:25.976Z,71.20
2022-09-23T16:20:53.357Z,71.80
2022-09-23T16:23:35.042Z,71.86
2022-09-23T16:26:08.579Z,72.03
2022-09-23T16:28:35.591Z,71.93
2022-09-23T16:31:03.165Z,72.13
2022-09-23T16:33:30.219Z,72.24
2022-09-23T16:35:57.849Z,72.28
2022-09-23T16:38:28.414Z,72.35
2022-09-23T16:41:00.792Z,72.44
2022-09-23T16:43:39.755Z,72.58
2022-09-23T16:46:08.061Z,72.88
2022-09-23T16:48:40.954Z,72.80
2022-09-23T16:51:09.233Z,73.19
2022-09-23T16:53:37.914Z,73.31
2022-09-23T16:56:09.841Z,73.66
2022-09-23T16:58:38.512Z,73.93
2022-09-23T17:01:25.685Z,74.03
2022-09-23T17:03:53.357Z,74.39
2022-09-23T17:06:20.414Z,74.42
2022-09-23T17:08:51.216Z,74.65
2022-09-23T17:11:18.228Z,74.79
2022-09-23T17:13:45.722Z,74.73
2022-09-23T17:16:26.769Z,74.61
2022-09-23T17:18:56.615Z,74.64
2022-09-23T17:21:26.923Z,74.51
2022-09-23T17:23:55.485Z,74.61
2022-09-23T17:26:24.544Z,74.81
2022-09-23T17:28:55.268Z,74.85
2022-09-23T17:31:24.381Z,74.80
2022-09-23T17:33:52.824Z,74.59
2022-09-23T17:36:20.528Z,74.94
2022-09-23T17:38:48.980Z,74.95
2022-09-23T17:41:17.302Z,75.08
2022-09-23T17:43:45.451Z,74.82
2022-09-23T17:46:18.244Z,74.95
2022-09-23T17:48:47.415Z,75.05
2022-09-23T17:51:19.956Z,75.11
2022-09-23T17:53:49.176Z,75.29
2022-09-23T17:56:21.185Z,75.52
2022-09-23T17:58:49.292Z,75.65
2022-09-23T18:01:23.301Z,75.81
2022-09-23T18:04:08.571Z,75.94
2022-09-23T18:06:37.788Z,76.14
2022-09-23T18:09:06.935Z,76.18
2022-09-23T18:11:43.499Z,76.29
2022-09-23T18:14:23.109Z,76.46
2022-09-23T18:16:52.555Z,76.75
2022-09-23T18:19:21.538Z,76.61
2022-09-23T18:21:50.724Z,77.01
2022-09-23T18:24:37.941Z,77.22
2022-09-23T18:27:06.631Z,77.50
2022-09-23T18:29:34.709Z,77.75
2022-09-23T18:32:02.300Z,78.00
2022-09-23T18:34:29.307Z,78.13
2022-09-23T18:36:56.487Z,78.54
2022-09-23T18:39:23.609Z,78.18
2022-09-23T18:41:50.632Z,78.23
2022-09-23T18:44:18.648Z,78.41
2022-09-23T18:46:45.623Z,78.52
2022-09-23T18:49:31.120Z,78.68
2022-09-23T18:51:58.539Z,78.75
2022-09-23T18:54:28.136Z,78.84
2022-09-23T18:56:55.491Z,79.00
2022-09-23T18:59:25.260Z,78.99
2022-09-23T19:01:55.014Z,79.02
2022-09-23T19:04:23.816Z,79.42
2022-09-23T19:06:50.860Z,79.38
2022-09-23T19:09:20.532Z,79.27
2022-09-23T19:11:51.766Z,79.30
2022-09-23T19:14:18.848Z,79.54
2022-09-23T19:16:46.180Z,79.58
2022-09-23T19:19:13.195Z,79.96
2022-09-23T19:21:40.188Z,80.09
2022-09-23T19:24:08.296Z,80.30
2022-09-23T19:26:38.301Z,80.62
2022-09-23T19:29:08.516Z,80.54
2022-09-23T19:31:40.667Z,80.62
2022-09-23T19:34:12.623Z,80.56
2022-09-23T19:36:42.574Z,80.36
2022-09-23T19:39:19.107Z,80.56
2022-09-23T19:41:47.136Z,80.36
2022-09-23T19:44:14.998Z,80.21
2022-09-23T19:46:46.283Z,80.46
2022-09-23T19:49:13.873Z,80.46
2022-09-23T19:51:46.502Z,80.58
2022-09-23T19:54:22.028Z,80.46
2022-09-23T19:56:51.656Z,80.43
2022-09-23T19:59:19.597Z,80.47
2022-09-23T20:01:48.396Z,80.57
2022-09-23T20:04:16.411Z,80.40
2022-09-23T20:06:43.661Z,80.48
2022-09-23T20:09:10.884Z,80.72
2022-09-23T20:11:38.135Z,80.61
2022-09-23T20:14:13.057Z,80.70
2022-09-23T20:16:40.671Z,80.68
2022-09-23T20:19:07.885Z,80.89
2022-09-23T20:21:35.476Z,80.96
2022-09-23T20:24:05.848Z,80.83
2022-09-23T20:26:51.807Z,80.87
2022-09-23T20:29:18.824Z,80.91
2022-09-23T20:31:45.974Z,80.75
2022-09-23T20:34:13.022Z,80.60
2022-09-23T20:36:41.496Z,80.84
2022-09-23T20:39:09.809Z,81.12
2022-09-23T20:41:38.499Z,80.79
2022-09-23T20:44:07.811Z,80.95
2022-09-23T20:46:35.927Z,81.29
2022-09-23T20:49:05.291Z,81.62
2022-09-23T20:51:33.608Z,81.91
2022-09-23T20:54:01.155Z,81.93
2022-09-23T20:56:28.703Z,81.96
2022-09-23T20:59:02.888Z,81.83
2022-09-23T21:01:33.025Z,81.83
2022-09-23T21:04:04.154Z,81.83
2022-09-23T21:06:31.446Z,81.88
2022-09-23T21:08:59.322Z,82.03
2022-09-23T21:11:26.572Z,81.95
2022-09-23T21:13:54.787Z,81.89
2022-09-23T21:16:22.851Z,81.72
2022-09-23T21:18:51.456Z,81.38
2022-09-23T21:21:20.361Z,81.47
2022-09-23T21:23:48.069Z,81.21
2022-09-23T21:26:20.212Z,81.22
2022-09-23T21:28:48.962Z,81.22
2022-09-23T21:31:23.470Z,81.18
2022-09-23T21:34:02.345Z,81.29
2022-09-23T21:36:34.712Z,81.32
2022-09-23T21:39:01.899Z,81.58
2022-09-23T21:41:29.248Z,81.79
2022-09-23T21:43:57.440Z,81.95
2022-09-23T21:46:25.063Z,82.19
2022-09-23T21:48:55.069Z,82.56
2022-09-23T21:51:35.386Z,82.92
2022-09-23T21:54:05.542Z,83.43
2022-09-23T21:56:39.987Z,84.15
2022-09-23T21:59:08.176Z,84.27
2022-09-23T22:01:37.738Z,85.00
2022-09-23T22:04:11.088Z,85.38
2022-09-23T22:06:40.556Z,86.06
2022-09-23T22:09:12.831Z,86.29
2022-09-23T22:11:59.328Z,86.64
2022-09-23T22:14:26.789Z,86.84
2022-09-23T22:16:59.269Z,87.48
2022-09-23T22:19:35.544Z,87.71
2022-09-23T22:22:07.125Z,87.81
2022-09-23T22:24:34.180Z,88.09
2022-09-23T22:27:01.331Z,88.77
2022-09-23T22:29:47.260Z,89.25
2022-09-23T22:32:32.750Z,89.70
2022-09-23T22:34:59.657Z,90.21
2022-09-23T22:37:34.849Z,90.74
2022-09-23T22:40:07.317Z,91.00
2022-09-23T22:42:36.187Z,91.48
2022-09-23T22:45:06.019Z,92.10
2022-09-23T22:47:40.743Z,92.66
2022-09-23T22:50:09.257Z,92.92
2022-09-23T22:52:36.820Z,93.62
2022-09-23T22:55:04.805Z,93.84
2022-09-23T22:57:31.740Z,94.27
2022-09-23T22:59:59.249Z,94.65
2022-09-23T23:02:26.418Z,94.96
2022-09-23T23:04:53.563Z,95.14
2022-09-23T23:07:21.429Z,95.40
2022-09-23T23:09:51.878Z,95.76
2022-09-23T23:12:20.452Z,96.09
2022-09-23T23:14:48.592Z,96.04
2022-09-23T23:17:15.881Z,96.24
2022-09-23T23:19:42.870Z,96.35
2022-09-23T23:22:09.939Z,96.47
2022-09-23T23:24:36.850Z,96.63
2022-09-23T23:27:03.843Z,97.07
2022-09-23T23:29:30.802Z,97.04
2022-09-23T23:31:57.872Z,97.10
2022-09-23T23:34:24.823Z,97.65
2022-09-23T23:36:56.221Z,97.66
2022-09-23T23:39:24.623Z,97.83
2022-09-23T23:41:54.315Z,97.86
2022-09-23T23:44:21.572Z,98.05
2022-09-23T23:46:49.363Z,98.23
2022-09-23T23:49:16.399Z,98.20
2022-09-23T23:51:43.434Z,98.37
2022-09-23T23:54:11.971Z,98.40
2022-09-23T23:56:38.870Z,98.37
2022-09-23T23:59:05.781Z,98.80
